createdAt,value
2023-01-07T00:01:20.885Z,12.77
2023-01-07T00:03:48.595Z,12.79
2023-01-07T00:06:21.657Z,12.89
2023-01-07T00:08:50.098Z,12.86
2023-01-07T00:11:22.118Z,12.90
2023-01-07T00:13:50.367Z,12.92
2023-01-07T00:16:19.092Z,12.94
2023-01-07T00:18:46.628Z,12.99
2023-01-07T00:21:16.387Z,13.02
2023-01-07T00:23:44.408Z,13.03
2023-01-07T00:26:15.176Z,13.06
2023-01-07T00:28:43.853Z,13.07
2023-01-07T00:31:16.137Z,13.07
2023-01-07T00:33:53.873Z,13.08
2023-01-07T00:36:22.050Z,13.09
2023-01-07T00:38:48.553Z,13.08
2023-01-07T00:41:15.027Z,13.11
2023-01-07T00:43:41.474Z,13.09
2023-01-07T00:46:10.202Z,13.11
2023-01-07T00:48:36.724Z,13.09
2023-01-07T00:51:03.294Z,13.09
2023-01-07T00:53:30.401Z,13.09
2023-01-07T00:55:56.948Z,13.10
2023-01-07T00:58:25.388Z,13.12
2023-01-07T01:00:58.907Z,13.16
2023-01-07T01:03:27.752Z,13.12
2023-01-07T01:05:54.819Z,13.12
2023-01-07T01:08:22.309Z,13.12
2023-01-07T01:10:48.729Z,13.14
2023-01-07T01:13:18.405Z,13.16
2023-01-07T01:15:46.894Z,13.14
2023-01-07T01:18:14.385Z,13.13
2023-01-07T01:20:41.381Z,13.14
2023-01-07T01:23:08.512Z,13.15
2023-01-07T01:25:35.014Z,13.16
2023-01-07T01:28:01.475Z,13.19
2023-01-07T01:30:28.010Z,13.18
2023-01-07T01:32:54.471Z,13.18
2023-01-07T01:35:20.936Z,13.19
2023-01-07T01:37:47.559Z,13.20
2023-01-07T01:40:14.571Z,13.20
2023-01-07T01:42:41.157Z,13.22
2023-01-07T01:45:07.972Z,13.23
2023-01-07T01:47:48.960Z,13.53
2023-01-07T01:50:24.000Z,13.33
2023-01-07T01:52:50.388Z,13.27
2023-01-07T01:55:19.582Z,13.27
2023-01-07T01:57:48.755Z,13.26
2023-01-07T02:00:16.715Z,13.26
2023-01-07T02:02:57.192Z,13.35
2023-01-07T02:05:32.573Z,13.33
2023-01-07T02:07:59.083Z,13.27
2023-01-07T02:10:26.980Z,13.30
2023-01-07T02:13:17.279Z,13.41
2023-01-07T02:16:11.434Z,13.38
2023-01-07T02:19:17.122Z,13.46
2023-01-07T02:21:49.709Z,13.40
2023-01-07T02:24:43.954Z,13.48
2023-01-07T02:27:21.052Z,13.44
2023-01-07T02:29:54.520Z,13.66
2023-01-07T02:32:39.421Z,13.53
2023-01-07T02:35:27.159Z,13.48
2023-01-07T02:38:05.712Z,13.45
2023-01-07T02:40:50.601Z,13.53
2023-01-07T02:43:29.572Z,13.45
2023-01-07T02:46:12.299Z,13.49
2023-01-07T02:48:39.480Z,13.41
2023-01-07T02:51:05.970Z,13.41
2023-01-07T02:53:33.380Z,13.41
2023-01-07T02:56:44.403Z,13.50
2023-01-07T02:59:41.574Z,13.52
2023-01-07T03:02:31.203Z,13.47
2023-01-07T03:05:10.021Z,13.52
2023-01-07T03:07:53.648Z,13.49
2023-01-07T03:10:42.161Z,13.46
2023-01-07T03:13:16.749Z,13.49
2023-01-07T03:15:51.079Z,13.51
2023-01-07T03:18:23.862Z,13.48
2023-01-07T03:20:55.999Z,13.46
2023-01-07T03:23:25.626Z,13.46
2023-01-07T03:25:54.492Z,13.46
2023-01-07T03:28:25.879Z,13.47
2023-01-07T03:30:54.632Z,13.48
2023-01-07T03:33:35.393Z,13.54
2023-01-07T03:36:06.743Z,13.49
2023-01-07T03:38:34.986Z,13.47
2023-01-07T03:41:01.937Z,13.46
2023-01-07T03:43:28.382Z,13.47
2023-01-07T03:45:57.807Z,13.51
2023-01-07T03:48:24.474Z,13.49
2023-01-07T03:50:50.940Z,13.49
2023-01-07T03:53:17.433Z,13.51
2023-01-07T03:55:43.891Z,13.52
2023-01-07T03:58:10.333Z,13.51
2023-01-07T04:00:36.849Z,13.52
2023-01-07T04:03:03.294Z,13.50
2023-01-07T04:05:29.800Z,13.51
2023-01-07T04:07:56.289Z,13.49
2023-01-07T04:10:22.822Z,13.50
2023-01-07T04:12:49.330Z,13.47
2023-01-07T04:15:15.856Z,13.48
2023-01-07T04:17:42.401Z,13.46
2023-01-07T04:20:10.340Z,13.45
2023-01-07T04:22:36.905Z,13.43
2023-01-07T04:25:03.730Z,13.41
2023-01-07T04:27:30.922Z,13.42
2023-01-07T04:29:57.398Z,13.42
2023-01-07T04:32:23.907Z,13.43
2023-01-07T04:34:50.357Z,13.42
2023-01-07T04:37:16.891Z,13.42
2023-01-07T04:39:43.326Z,13.42
2023-01-07T04:42:09.818Z,13.40
2023-01-07T04:44:36.263Z,13.40
2023-01-07T04:47:02.777Z,13.41
2023-01-07T04:49:29.265Z,13.41
2023-01-07T04:51:55.735Z,13.41
2023-01-07T04:54:22.190Z,13.39
2023-01-07T04:56:48.664Z,13.39
2023-01-07T04:59:15.131Z,13.37
2023-01-07T05:01:41.669Z,13.39
2023-01-07T05:04:08.208Z,13.69
2023-01-07T05:06:34.710Z,13.42
2023-01-07T05:09:01.173Z,13.40
2023-01-07T05:11:27.647Z,13.37
2023-01-07T05:13:54.159Z,13.38
2023-01-07T05:16:20.686Z,13.36
2023-01-07T06:19:13.690Z,13.22
2023-01-07T06:21:40.218Z,13.17
2023-01-07T06:24:07.338Z,13.12
2023-01-07T06:26:33.918Z,13.14
2023-01-07T06:29:00.393Z,13.14
2023-01-07T06:31:26.882Z,13.15
2023-01-07T06:33:53.343Z,13.15
2023-01-07T06:36:19.819Z,13.15
2023-01-07T06:38:46.326Z,13.17
2023-01-07T06:41:12.840Z,13.18
2023-01-07T06:43:39.296Z,13.19
2023-01-07T06:46:06.097Z,13.19
2023-01-07T06:48:32.589Z,13.19
2023-01-07T06:50:59.019Z,13.18
2023-01-07T06:53:25.578Z,13.20
2023-01-07T06:55:52.111Z,13.23
2023-01-07T06:58:18.919Z,13.22
2023-01-07T07:00:45.445Z,13.22
2023-01-07T07:03:12.092Z,13.23
2023-01-07T07:05:38.931Z,13.53
2023-01-07T07:08:06.424Z,13.26
2023-01-07T07:10:33.507Z,13.25
2023-01-07T07:13:00.002Z,13.25
2023-01-07T07:15:26.496Z,13.26
2023-01-07T07:17:52.991Z,13.25
2023-01-07T07:20:19.511Z,13.25
2023-01-07T07:22:46.915Z,13.25
2023-01-07T07:25:14.320Z,13.23
2023-01-07T07:27:40.928Z,13.22
2023-01-07T07:30:08.484Z,13.25
2023-01-07T07:32:35.063Z,13.25
2023-01-07T07:35:01.550Z,13.24
2023-01-07T07:37:28.039Z,13.26
2023-01-07T07:39:54.463Z,13.25
2023-01-07T07:42:20.927Z,13.26
2023-01-07T07:44:47.484Z,13.27
2023-01-07T07:47:13.982Z,13.26
2023-01-07T07:49:40.471Z,13.26
2023-01-07T07:52:07.082Z,13.25
2023-01-07T07:54:33.745Z,13.25
2023-01-07T07:57:00.178Z,13.52
2023-01-07T07:59:26.758Z,13.26
2023-01-07T08:01:53.302Z,13.22
2023-01-07T08:04:19.807Z,13.20
2023-01-07T08:06:46.403Z,13.22
2023-01-07T08:09:13.120Z,13.21
2023-01-07T08:11:39.548Z,13.49
2023-01-07T08:14:06.029Z,13.25
2023-01-07T08:16:32.607Z,13.25
2023-01-07T08:18:59.364Z,13.24
2023-01-07T08:21:25.841Z,13.26
2023-01-07T08:23:52.546Z,13.26
2023-01-07T08:26:18.993Z,13.55
2023-01-07T08:28:46.762Z,13.34
2023-01-07T08:31:13.786Z,13.30
2023-01-07T08:33:40.411Z,13.30
2023-01-07T08:36:18.218Z,13.33
2023-01-07T08:38:53.023Z,13.37
2023-01-07T08:41:23.885Z,13.33
2023-01-07T08:43:50.970Z,13.33
2023-01-07T08:46:17.618Z,13.32
2023-01-07T08:48:44.087Z,13.60
2023-01-07T08:51:10.599Z,13.40
2023-01-07T08:53:37.044Z,13.38
2023-01-07T08:56:03.684Z,13.41
2023-01-07T08:58:30.219Z,13.43
2023-01-07T09:01:05.776Z,13.50
2023-01-07T09:03:32.995Z,13.48
2023-01-07T09:05:59.949Z,13.50
2023-01-07T09:08:26.549Z,13.49
2023-01-07T09:10:53.061Z,13.53
2023-01-07T09:13:19.569Z,13.60
2023-01-07T09:15:46.009Z,13.65
2023-01-07T09:18:12.503Z,13.68
2023-01-07T09:20:38.938Z,13.71
2023-01-07T09:23:05.457Z,13.77
2023-01-07T09:25:31.927Z,13.81
2023-01-07T09:27:58.404Z,13.87
2023-01-07T09:30:24.884Z,13.91
2023-01-07T09:32:51.411Z,13.93
2023-01-07T09:35:18.132Z,13.96
2023-01-07T09:37:44.576Z,14.25
2023-01-07T09:40:27.263Z,14.09
2023-01-07T09:43:26.317Z,14.20
2023-01-07T09:46:13.066Z,14.06
2023-01-07T09:48:44.064Z,14.12
2023-01-07T09:51:35.206Z,14.13
2023-01-07T09:54:04.201Z,14.09
2023-01-07T09:56:33.579Z,14.13
2023-01-07T09:59:01.838Z,14.13
2023-01-07T10:01:34.029Z,14.13
2023-01-07T10:04:34.486Z,14.25
2023-01-07T10:07:20.053Z,14.30
2023-01-07T10:10:05.182Z,14.21
2023-01-07T10:12:54.942Z,14.36
2023-01-07T10:15:58.505Z,14.41
2023-01-07T10:18:38.306Z,14.39
2023-01-07T10:21:18.401Z,14.49
2023-01-07T10:24:03.241Z,14.55
2023-01-07T10:26:46.324Z,14.61
2023-01-07T10:29:39.547Z,14.66
2023-01-07T10:32:17.401Z,14.70
2023-01-07T10:34:50.379Z,14.69
2023-01-07T10:37:27.497Z,14.73
2023-01-07T10:40:06.085Z,14.76
2023-01-07T10:42:47.494Z,14.86
2023-01-07T10:45:47.084Z,14.91
2023-01-07T10:48:16.521Z,14.89
2023-01-07T10:51:03.769Z,15.02
2023-01-07T10:53:59.459Z,14.94
2023-01-07T10:56:32.387Z,14.99
2023-01-07T10:59:04.001Z,14.95
2023-01-07T11:01:37.156Z,14.98
2023-01-07T11:04:05.154Z,14.94
2023-01-07T11:06:38.935Z,14.93
2023-01-07T11:09:10.921Z,14.96
2023-01-07T11:11:38.406Z,14.93
2023-01-07T11:14:15.836Z,14.98
2023-01-07T11:16:51.523Z,14.95
2023-01-07T11:19:18.289Z,14.90
2023-01-07T11:21:52.227Z,14.91
2023-01-07T11:24:34.907Z,14.95
2023-01-07T11:27:10.505Z,14.96
2023-01-07T11:29:42.446Z,14.90
2023-01-07T11:32:22.056Z,14.96
2023-01-07T11:34:57.185Z,14.94
2023-01-07T11:37:33.475Z,14.93
2023-01-07T11:40:17.382Z,14.94
2023-01-07T11:43:01.896Z,14.95
2023-01-07T11:45:31.340Z,14.90
2023-01-07T11:48:09.479Z,14.98
2023-01-07T11:50:44.487Z,15.00
2023-01-07T11:53:13.915Z,14.94
2023-01-07T11:55:54.713Z,14.94
2023-01-07T11:58:29.244Z,14.97
2023-01-07T12:01:09.086Z,15.05
2023-01-07T12:03:40.831Z,14.97
2023-01-07T12:06:16.841Z,14.97
2023-01-07T12:08:52.581Z,15.01
2023-01-07T12:11:19.245Z,14.96
2023-01-07T12:13:52.447Z,15.27
2023-01-07T12:16:28.254Z,15.06
2023-01-07T12:19:00.632Z,15.03
2023-01-07T12:21:33.161Z,14.97
2023-01-07T12:24:18.389Z,14.95
2023-01-07T12:26:54.914Z,15.00
2023-01-07T12:29:26.361Z,15.02
2023-01-07T12:32:23.706Z,15.07
2023-01-07T12:35:14.384Z,15.07
2023-01-07T12:37:54.035Z,15.04
2023-01-07T12:40:32.925Z,15.03
2023-01-07T12:43:11.429Z,14.99
2023-01-07T12:45:46.335Z,15.00
2023-01-07T12:48:27.199Z,15.01
2023-01-07T12:50:57.409Z,14.93
2023-01-07T12:53:47.420Z,15.01
2023-01-07T12:56:20.552Z,14.92
2023-01-07T12:59:05.418Z,14.95
2023-01-07T13:01:40.145Z,14.91
2023-01-07T13:04:16.892Z,14.87
2023-01-07T13:06:53.735Z,14.92
2023-01-07T13:09:47.868Z,14.97
2023-01-07T13:12:47.523Z,14.89
2023-01-07T13:15:33.851Z,14.94
2023-01-07T13:18:21.135Z,14.95
2023-01-07T13:20:57.845Z,14.89
2023-01-07T13:23:33.211Z,14.88
2023-01-07T13:26:11.201Z,14.84
2023-01-07T13:28:56.639Z,14.84
2023-01-07T13:31:51.124Z,14.88
2023-01-07T13:34:42.099Z,14.94
2023-01-07T13:37:23.735Z,14.81
2023-01-07T13:39:58.439Z,14.89
2023-01-07T13:42:32.936Z,14.84
2023-01-07T13:45:13.741Z,14.87
2023-01-07T13:47:45.149Z,14.82
2023-01-07T13:50:22.488Z,14.83
2023-01-07T13:52:57.303Z,14.82
2023-01-07T13:55:34.684Z,14.85
2023-01-07T13:58:02.903Z,14.72
2023-01-07T14:00:38.256Z,14.79
2023-01-07T14:03:05.420Z,14.68
2023-01-07T14:05:31.977Z,14.68
2023-01-07T14:08:01.277Z,14.69
2023-01-07T14:10:33.390Z,14.71
2023-01-07T14:13:34.970Z,14.74
2023-01-07T14:16:32.790Z,14.74
2023-01-07T14:19:20.628Z,14.76
2023-01-07T14:21:46.992Z,14.93
2023-01-07T14:24:45.917Z,14.77
2023-01-07T14:27:50.188Z,14.72
2023-01-07T14:30:35.450Z,14.66
2023-01-07T14:33:04.230Z,14.56
2023-01-07T14:35:40.512Z,14.58
2023-01-07T14:38:40.190Z,14.68
2023-01-07T14:41:13.916Z,14.52
2023-01-07T14:43:40.331Z,14.49
2023-01-07T14:46:24.997Z,14.62
2023-01-07T14:49:03.591Z,14.54
2023-01-07T14:51:32.946Z,14.49
2023-01-07T14:54:41.516Z,14.61
2023-01-07T14:57:26.949Z,14.49
2023-01-07T15:00:31.053Z,14.57
2023-01-07T15:03:09.731Z,14.48
2023-01-07T15:06:00.578Z,14.54
2023-01-07T15:08:53.751Z,14.43
2023-01-07T15:11:43.657Z,14.44
2023-01-07T15:14:50.576Z,14.53
2023-01-07T15:17:17.527Z,14.40
2023-01-07T15:19:44.859Z,14.37
2023-01-07T15:22:22.135Z,14.36
2023-01-07T15:25:33.884Z,14.51
2023-01-07T15:28:22.611Z,14.39
2023-01-07T15:31:13.702Z,14.38
2023-01-07T15:33:52.981Z,14.40
2023-01-07T15:36:20.237Z,14.26
2023-01-07T15:38:53.089Z,14.28
2023-01-07T15:41:40.086Z,14.38
2023-01-07T15:44:23.643Z,14.30
2023-01-07T15:46:50.385Z,14.22
2023-01-07T15:49:23.470Z,14.25
2023-01-07T15:51:57.083Z,14.19
2023-01-07T15:54:31.196Z,14.16
2023-01-07T15:57:02.896Z,14.19
2023-01-07T15:59:34.342Z,14.16
2023-01-07T16:02:27.898Z,14.25
2023-01-07T16:04:59.727Z,14.14
2023-01-07T16:07:34.453Z,14.15
2023-01-07T16:10:04.513Z,14.08
2023-01-07T16:12:39.084Z,14.13
2023-01-07T16:15:41.490Z,14.24
2023-01-07T16:18:11.361Z,14.09
2023-01-07T16:20:50.329Z,14.07
2023-01-07T16:23:22.361Z,14.10
2023-01-07T16:25:54.148Z,14.07
2023-01-07T16:28:54.282Z,14.19
2023-01-07T16:31:24.660Z,14.10
2023-01-07T16:33:54.416Z,14.09
2023-01-07T16:36:29.117Z,14.12
2023-01-07T16:38:59.365Z,14.10
2023-01-07T16:41:28.815Z,14.07
2023-01-07T16:44:00.058Z,14.10
2023-01-07T16:46:37.148Z,14.09
2023-01-07T16:49:25.993Z,14.15
2023-01-07T16:52:14.764Z,14.07
2023-01-07T16:54:43.525Z,14.07
2023-01-07T16:57:16.294Z,14.14
2023-01-07T16:59:53.835Z,14.18
2023-01-07T17:02:36.957Z,14.19
2023-01-07T17:05:23.519Z,14.25
2023-01-07T17:07:56.195Z,14.15
2023-01-07T17:10:27.346Z,14.15
2023-01-07T17:13:02.854Z,14.15
2023-01-07T17:15:41.391Z,14.10
2023-01-07T17:18:10.972Z,14.08
2023-01-07T17:20:53.884Z,14.13
2023-01-07T17:23:26.570Z,14.06
2023-01-07T17:26:06.457Z,14.07
2023-01-07T17:28:36.289Z,14.00
2023-01-07T17:31:03.747Z,13.97
2023-01-07T17:33:30.258Z,13.97
2023-01-07T17:35:59.469Z,13.98
2023-01-07T17:38:26.156Z,13.96
2023-01-07T17:40:54.533Z,14.28
2023-01-07T17:43:36.891Z,14.01
2023-01-07T17:46:04.790Z,13.97
2023-01-07T17:48:32.707Z,13.93
2023-01-07T17:51:16.103Z,13.96
2023-01-07T17:53:50.621Z,13.96
2023-01-07T17:56:17.298Z,13.92
2023-01-07T17:58:46.743Z,14.22
2023-01-07T18:01:16.744Z,14.00
2023-01-07T18:03:46.754Z,13.94
2023-01-07T18:06:22.346Z,13.91
2023-01-07T18:08:50.238Z,13.90
2023-01-07T18:11:39.046Z,13.90
2023-01-07T18:14:06.161Z,13.89
2023-01-07T18:16:33.345Z,13.87
2023-01-07T18:19:00.119Z,13.87
2023-01-07T18:21:26.628Z,14.19
2023-01-07T18:23:53.272Z,13.91
2023-01-07T18:26:19.765Z,14.21
2023-01-07T18:31:22.379Z,13.93
2023-01-07T18:33:50.286Z,13.91
2023-01-07T18:36:16.993Z,13.89
2023-01-07T18:38:48.257Z,13.87
2023-01-07T18:41:16.231Z,13.90
2023-01-07T18:43:44.065Z,13.89
2023-01-07T18:46:11.801Z,13.90
2023-01-07T18:48:38.494Z,13.87
2023-01-07T18:51:10.927Z,13.92
2023-01-07T18:53:40.117Z,13.85
2023-01-07T18:56:11.945Z,13.85
2023-01-07T18:58:42.146Z,13.86
2023-01-07T19:01:12.269Z,13.87
2023-01-07T19:03:39.071Z,13.81
2023-01-07T19:06:06.749Z,14.11
2023-01-07T19:08:33.466Z,13.85
2023-01-07T19:11:00.014Z,14.10
2023-01-07T19:13:26.913Z,13.80
2023-01-07T19:15:53.570Z,13.75
2023-01-07T19:18:20.079Z,14.05
2023-01-07T19:20:46.782Z,13.75
2023-01-07T19:23:13.408Z,13.71
2023-01-07T19:25:40.060Z,13.71
2023-01-07T19:28:06.690Z,13.68
2023-01-07T19:30:33.281Z,13.99
2023-01-07T19:32:59.917Z,13.69
2023-01-07T19:35:27.818Z,13.95
2023-01-07T19:37:55.026Z,14.00
2023-01-07T19:40:21.682Z,13.68
2023-01-07T19:42:48.934Z,13.93
2023-01-07T19:45:16.002Z,13.64
2023-01-07T19:47:44.058Z,13.57
2023-01-07T19:50:11.236Z,13.53
2023-01-07T19:52:37.957Z,13.52
2023-01-07T19:55:05.051Z,13.49
2023-01-07T19:57:31.835Z,13.47
2023-01-07T19:59:59.089Z,13.48
2023-01-07T20:02:25.917Z,13.48
2023-01-07T20:04:52.680Z,13.47
2023-01-07T20:07:21.147Z,13.49
2023-01-07T20:09:48.475Z,13.47
2023-01-07T20:12:15.258Z,13.48
2023-01-07T20:14:42.433Z,13.46
2023-01-07T20:17:09.069Z,13.47
2023-01-07T20:19:35.560Z,13.76
2023-01-07T20:22:02.190Z,13.52
2023-01-07T20:24:29.739Z,13.79
2023-01-07T20:26:57.590Z,13.52
2023-01-07T20:29:24.212Z,13.47
2023-01-07T20:31:50.765Z,13.75
2023-01-07T20:34:17.444Z,13.46
2023-01-07T20:36:44.980Z,13.76
2023-01-07T20:39:11.855Z,13.48
2023-01-07T20:41:39.011Z,13.43
2023-01-07T20:44:08.673Z,13.39
2023-01-07T20:46:36.111Z,13.38
2023-01-07T20:49:03.846Z,13.39
2023-01-07T20:51:31.171Z,13.38
2023-01-07T20:53:58.377Z,13.37
2023-01-07T20:56:26.407Z,13.35
2023-01-07T20:58:53.118Z,13.36
2023-01-07T21:01:21.041Z,13.65
2023-01-07T21:03:48.873Z,13.38
2023-01-07T21:06:17.717Z,13.35
2023-01-07T21:08:46.741Z,13.34
2023-01-07T21:11:15.139Z,13.33
2023-01-07T21:13:42.083Z,13.32
2023-01-07T21:16:09.085Z,13.32
2023-01-07T21:18:37.034Z,13.32
2023-01-07T21:21:15.005Z,13.34
2023-01-07T21:23:41.724Z,13.30
2023-01-07T21:26:08.993Z,13.57
2023-01-07T21:28:36.223Z,13.33
2023-01-07T21:31:09.051Z,13.33
2023-01-07T21:33:36.412Z,13.25
2023-01-07T21:36:16.653Z,13.29
2023-01-07T21:38:44.417Z,13.19
2023-01-07T21:41:13.968Z,13.19
2023-01-07T21:43:41.963Z,13.18
2023-01-07T21:46:12.080Z,13.21
2023-01-07T21:48:40.790Z,13.19
2023-01-07T21:51:14.796Z,13.18
2023-01-07T21:53:42.245Z,13.16
2023-01-07T21:56:17.481Z,13.18
2023-01-07T21:58:45.920Z,13.15
2023-01-07T22:01:12.766Z,13.14
2023-01-07T22:03:40.025Z,13.12
2023-01-07T22:06:08.936Z,13.12
2023-01-07T22:08:37.006Z,13.09
2023-01-07T22:11:03.633Z,13.10
2023-01-07T22:13:30.274Z,13.41
2023-01-07T22:15:57.076Z,13.16
2023-01-07T22:18:26.849Z,13.13
2023-01-07T22:20:55.768Z,13.09
2023-01-07T22:23:22.705Z,13.12
2023-01-07T22:25:49.815Z,13.09
2023-01-07T22:28:18.213Z,13.12
2023-01-07T22:30:51.761Z,13.16
2023-01-07T22:33:18.249Z,13.14
2023-01-07T22:35:45.480Z,13.13
2023-01-07T22:38:14.460Z,13.13
2023-01-07T22:40:41.426Z,13.06
2023-01-07T22:43:12.406Z,13.15
2023-01-07T22:45:56.428Z,13.20
2023-01-07T22:48:27.159Z,13.15
2023-01-07T22:50:56.943Z,13.16
2023-01-07T22:53:24.353Z,13.10
2023-01-07T22:55:51.039Z,13.15
2023-01-07T22:58:18.020Z,13.45
2023-01-07T23:00:50.752Z,13.23
2023-01-07T23:03:22.758Z,13.23
2023-01-07T23:05:50.321Z,13.17
2023-01-07T23:08:20.026Z,13.12
2023-01-07T23:10:46.839Z,13.14
2023-01-07T23:13:13.379Z,13.15
2023-01-07T23:15:40.647Z,13.16
2023-01-07T23:18:09.789Z,13.14
2023-01-07T23:20:48.681Z,13.19
2023-01-07T23:23:15.271Z,13.16
2023-01-07T23:25:46.424Z,13.20
2023-01-07T23:28:14.175Z,13.17
2023-01-07T23:30:41.001Z,13.14
2023-01-07T23:33:08.166Z,13.17
2023-01-07T23:35:35.294Z,13.14
2023-01-07T23:38:01.853Z,13.12
2023-01-07T23:40:28.312Z,13.15
2023-01-07T23:42:56.631Z,13.15
2023-01-07T23:45:24.101Z,13.15
2023-01-07T23:47:50.546Z,13.15
2023-01-07T23:50:17.117Z,13.14
2023-01-07T23:52:43.582Z,13.17
2023-01-07T23:55:10.650Z,13.16
2023-01-07T23:57:37.199Z,13.14
